sensor_id;sensor_type;location;lat;lon;timestamp;P1;durP1;ratioP1;P2;durP2;ratioP2
70951;SDS011;69214;55.880;37.542;2023-05-29T00:00:06;2.35;;;0.40;;
70951;SDS011;69214;55.880;37.542;2023-05-29T00:02:36;3.35;;;0.43;;
70951;SDS011;69214;55.880;37.542;2023-05-29T00:05:50;3.63;;;0.52;;
70951;SDS011;69214;55.880;37.542;2023-05-29T00:08:16;2.47;;;0.40;;
70951;SDS011;69214;55.880;37.542;2023-05-29T00:10:42;3.60;;;0.60;;
70951;SDS011;69214;55.880;37.542;2023-05-29T00:13:14;3.90;;;0.45;;
70951;SDS011;69214;55.880;37.542;2023-05-29T00:16:19;2.10;;;0.57;;
70951;SDS011;69214;55.880;37.542;2023-05-29T00:18:45;4.43;;;0.50;;
70951;SDS011;69214;55.880;37.542;2023-05-29T00:21:11;2.65;;;0.30;;
70951;SDS011;69214;55.880;37.542;2023-05-29T00:23:39;2.53;;;0.55;;
70951;SDS011;69214;55.880;37.542;2023-05-29T00:26:05;3.80;;;0.52;;
70951;SDS011;69214;55.880;37.542;2023-05-29T00:28:31;3.33;;;0.50;;
70951;SDS011;69214;55.880;37.542;2023-05-29T00:30:57;1.63;;;0.40;;
70951;SDS011;69214;55.880;37.542;2023-05-29T00:33:23;2.78;;;0.43;;
70951;SDS011;69214;55.880;37.542;2023-05-29T00:35:49;2.58;;;0.63;;
70951;SDS011;69214;55.880;37.542;2023-05-29T00:38:15;4.00;;;0.63;;
70951;SDS011;69214;55.880;37.542;2023-05-29T00:41:04;3.25;;;0.55;;
70951;SDS011;69214;55.880;37.542;2023-05-29T00:43:30;3.40;;;0.65;;
70951;SDS011;69214;55.880;37.542;2023-05-29T00:45:56;2.60;;;0.50;;
70951;SDS011;69214;55.880;37.542;2023-05-29T00:48:22;3.83;;;0.60;;
70951;SDS011;69214;55.880;37.542;2023-05-29T00:50:48;4.38;;;0.88;;
70951;SDS011;69214;55.880;37.542;2023-05-29T00:53:14;4.43;;;0.68;;
70951;SDS011;69214;55.880;37.542;2023-05-29T00:55:40;5.10;;;0.70;;
70951;SDS011;69214;55.880;37.542;2023-05-29T00:58:16;3.75;;;0.63;;
70951;SDS011;69214;55.880;37.542;2023-05-29T01:00:49;3.47;;;0.70;;
70951;SDS011;69214;55.880;37.542;2023-05-29T01:03:18;6.32;;;0.70;;
70951;SDS011;69214;55.880;37.542;2023-05-29T01:05:44;2.67;;;0.55;;
70951;SDS011;69214;55.880;37.542;2023-05-29T01:08:11;4.67;;;0.50;;
70951;SDS011;69214;55.880;37.542;2023-05-29T01:10:56;2.15;;;0.40;;
70951;SDS011;69214;55.880;37.542;2023-05-29T01:13:46;2.70;;;0.40;;
70951;SDS011;69214;55.880;37.542;2023-05-29T01:27:36;1.63;;;0.30;;
70951;SDS011;69214;55.880;37.542;2023-05-29T01:30:04;3.22;;;0.30;;
70951;SDS011;69214;55.880;37.542;2023-05-29T01:32:34;2.30;;;0.40;;
70951;SDS011;69214;55.880;37.542;2023-05-29T01:35:02;2.50;;;0.40;;
70951;SDS011;69214;55.880;37.542;2023-05-29T01:37:52;2.35;;;0.35;;
70951;SDS011;69214;55.880;37.542;2023-05-29T01:40:18;2.45;;;0.40;;
70951;SDS011;69214;55.880;37.542;2023-05-29T01:42:51;3.10;;;0.38;;
70951;SDS011;69214;55.880;37.542;2023-05-29T01:45:37;3.47;;;0.40;;
70951;SDS011;69214;55.880;37.542;2023-05-29T01:48:26;2.25;;;0.50;;
70951;SDS011;69214;55.880;37.542;2023-05-29T01:50:55;2.22;;;0.30;;
70951;SDS011;69214;55.880;37.542;2023-05-29T01:53:24;4.55;;;0.32;;
70951;SDS011;69214;55.880;37.542;2023-05-29T01:55:50;1.70;;;0.30;;
70951;SDS011;69214;55.880;37.542;2023-05-29T01:58:23;2.00;;;0.30;;
70951;SDS011;69214;55.880;37.542;2023-05-29T02:01:15;1.35;;;0.20;;
70951;SDS011;69214;55.880;37.542;2023-05-29T02:03:53;3.90;;;0.50;;
70951;SDS011;69214;55.880;37.542;2023-05-29T02:06:19;2.45;;;0.40;;
70951;SDS011;69214;55.880;37.542;2023-05-29T02:08:50;1.38;;;0.20;;
70951;SDS011;69214;55.880;37.542;2023-05-29T02:11:16;2.00;;;0.30;;
70951;SDS011;69214;55.880;37.542;2023-05-29T02:13:42;4.18;;;0.40;;
70951;SDS011;69214;55.880;37.542;2023-05-29T02:16:08;2.83;;;0.40;;
70951;SDS011;69214;55.880;37.542;2023-05-29T02:18:34;1.67;;;0.40;;
70951;SDS011;69214;55.880;37.542;2023-05-29T02:21:00;2.80;;;0.40;;
70951;SDS011;69214;55.880;37.542;2023-05-29T02:23:27;3.55;;;0.30;;
70951;SDS011;69214;55.880;37.542;2023-05-29T02:25:53;1.80;;;0.30;;
70951;SDS011;69214;55.880;37.542;2023-05-29T02:28:20;2.13;;;0.30;;
70951;SDS011;69214;55.880;37.542;2023-05-29T02:34:11;1.65;;;0.40;;
70951;SDS011;69214;55.880;37.542;2023-05-29T02:36:36;4.45;;;0.70;;
70951;SDS011;69214;55.880;37.542;2023-05-29T02:39:04;2.27;;;0.40;;
70951;SDS011;69214;55.880;37.542;2023-05-29T02:41:31;3.42;;;0.70;;
70951;SDS011;69214;55.880;37.542;2023-05-29T02:44:06;2.72;;;0.60;;
70951;SDS011;69214;55.880;37.542;2023-05-29T02:47:05;5.03;;;0.73;;
70951;SDS011;69214;55.880;37.542;2023-05-29T02:50:24;3.40;;;0.60;;
70951;SDS011;69214;55.880;37.542;2023-05-29T02:52:54;2.60;;;0.63;;
70951;SDS011;69214;55.880;37.542;2023-05-29T02:55:20;1.90;;;0.52;;
70951;SDS011;69214;55.880;37.542;2023-05-29T03:00:58;2.70;;;0.70;;
70951;SDS011;69214;55.880;37.542;2023-05-29T03:03:25;3.07;;;0.50;;
70951;SDS011;69214;55.880;37.542;2023-05-29T03:05:51;3.47;;;0.50;;
70951;SDS011;69214;55.880;37.542;2023-05-29T03:08:17;2.47;;;0.70;;
70951;SDS011;69214;55.880;37.542;2023-05-29T03:10:43;2.10;;;0.70;;
70951;SDS011;69214;55.880;37.542;2023-05-29T03:13:10;1.92;;;0.60;;
70951;SDS011;69214;55.880;37.542;2023-05-29T03:18:35;1.52;;;0.60;;
70951;SDS011;69214;55.880;37.542;2023-05-29T03:21:01;2.70;;;0.50;;
70951;SDS011;69214;55.880;37.542;2023-05-29T03:23:29;2.13;;;0.80;;
70951;SDS011;69214;55.880;37.542;2023-05-29T03:26:35;4.78;;;0.60;;
70951;SDS011;69214;55.880;37.542;2023-05-29T03:29:02;2.28;;;0.65;;
70951;SDS011;69214;55.880;37.542;2023-05-29T03:31:30;2.28;;;0.60;;
70951;SDS011;69214;55.880;37.542;2023-05-29T03:33:57;2.63;;;0.60;;
70951;SDS011;69214;55.880;37.542;2023-05-29T03:36:34;2.08;;;0.60;;
70951;SDS011;69214;55.880;37.542;2023-05-29T03:39:02;3.00;;;0.60;;
70951;SDS011;69214;55.880;37.542;2023-05-29T03:41:29;1.55;;;0.68;;
70951;SDS011;69214;55.880;37.542;2023-05-29T03:43:55;2.85;;;0.90;;
70951;SDS011;69214;55.880;37.542;2023-05-29T03:46:23;2.03;;;0.93;;
70951;SDS011;69214;55.880;37.542;2023-05-29T03:48:51;2.00;;;0.80;;
70951;SDS011;69214;55.880;37.542;2023-05-29T03:51:16;1.65;;;0.90;;
70951;SDS011;69214;55.880;37.542;2023-05-29T03:53:53;2.78;;;0.80;;
70951;SDS011;69214;55.880;37.542;2023-05-29T03:56:39;2.58;;;1.00;;
70951;SDS011;69214;55.880;37.542;2023-05-29T03:59:05;1.93;;;0.80;;
70951;SDS011;69214;55.880;37.542;2023-05-29T04:01:35;3.15;;;1.00;;
70951;SDS011;69214;55.880;37.542;2023-05-29T04:04:56;1.50;;;0.90;;
70951;SDS011;69214;55.880;37.542;2023-05-29T04:07:22;1.83;;;1.10;;
70951;SDS011;69214;55.880;37.542;2023-05-29T04:09:48;2.43;;;1.30;;
70951;SDS011;69214;55.880;37.542;2023-05-29T04:12:14;2.53;;;1.08;;
70951;SDS011;69214;55.880;37.542;2023-05-29T04:14:41;2.25;;;1.20;;
70951;SDS011;69214;55.880;37.542;2023-05-29T04:17:06;2.63;;;1.40;;
70951;SDS011;69214;55.880;37.542;2023-05-29T04:19:32;3.53;;;1.50;;
70951;SDS011;69214;55.880;37.542;2023-05-29T04:21:59;2.63;;;1.50;;
70951;SDS011;69214;55.880;37.542;2023-05-29T04:24:36;2.60;;;1.52;;
70951;SDS011;69214;55.880;37.542;2023-05-29T04:27:22;4.85;;;1.85;;
70951;SDS011;69214;55.880;37.542;2023-05-29T04:29:49;2.90;;;1.90;;
70951;SDS011;69214;55.880;37.542;2023-05-29T04:32:15;3.17;;;1.60;;
70951;SDS011;69214;55.880;37.542;2023-05-29T04:34:40;3.03;;;1.48;;
70951;SDS011;69214;55.880;37.542;2023-05-29T04:37:11;3.95;;;1.48;;
70951;SDS011;69214;55.880;37.542;2023-05-29T04:39:39;4.00;;;1.70;;
70951;SDS011;69214;55.880;37.542;2023-05-29T04:42:06;3.38;;;1.98;;
70951;SDS011;69214;55.880;37.542;2023-05-29T04:45:11;2.40;;;1.90;;
70951;SDS011;69214;55.880;37.542;2023-05-29T04:47:38;2.42;;;1.75;;
70951;SDS011;69214;55.880;37.542;2023-05-29T04:50:10;3.20;;;2.35;;
70951;SDS011;69214;55.880;37.542;2023-05-29T04:52:41;3.47;;;2.20;;
70951;SDS011;69214;55.880;37.542;2023-05-29T04:55:10;5.57;;;2.38;;
70951;SDS011;69214;55.880;37.542;2023-05-29T04:57:37;3.45;;;2.63;;
70951;SDS011;69214;55.880;37.542;2023-05-29T05:00:05;5.35;;;3.00;;
70951;SDS011;69214;55.880;37.542;2023-05-29T05:02:42;5.05;;;2.70;;
70951;SDS011;69214;55.880;37.542;2023-05-29T05:05:09;5.83;;;2.73;;
70951;SDS011;69214;55.880;37.542;2023-05-29T05:07:35;7.53;;;2.63;;
70951;SDS011;69214;55.880;37.542;2023-05-29T05:10:05;3.65;;;2.72;;
70951;SDS011;69214;55.880;37.542;2023-05-29T05:12:32;5.70;;;2.90;;
70951;SDS011;69214;55.880;37.542;2023-05-29T05:14:59;3.95;;;3.17;;
70951;SDS011;69214;55.880;37.542;2023-05-29T05:17:26;4.43;;;2.90;;
70951;SDS011;69214;55.880;37.542;2023-05-29T05:19:52;4.00;;;2.97;;
70951;SDS011;69214;55.880;37.542;2023-05-29T05:22:18;4.55;;;3.20;;
70951;SDS011;69214;55.880;37.542;2023-05-29T05:24:52;4.28;;;3.08;;
70951;SDS011;69214;55.880;37.542;2023-05-29T05:27:38;7.00;;;3.40;;
70951;SDS011;69214;55.880;37.542;2023-05-29T05:30:04;4.23;;;3.20;;
70951;SDS011;69214;55.880;37.542;2023-05-29T05:32:32;5.03;;;3.47;;
70951;SDS011;69214;55.880;37.542;2023-05-29T05:35:05;3.92;;;2.70;;
70951;SDS011;69214;55.880;37.542;2023-05-29T05:37:31;3.67;;;2.58;;
70951;SDS011;69214;55.880;37.542;2023-05-29T05:39:59;3.25;;;2.95;;
70951;SDS011;69214;55.880;37.542;2023-05-29T05:42:26;4.00;;;3.70;;
70951;SDS011;69214;55.880;37.542;2023-05-29T05:44:58;2.90;;;2.60;;
70951;SDS011;69214;55.880;37.542;2023-05-29T05:47:24;3.08;;;2.75;;
70951;SDS011;69214;55.880;37.542;2023-05-29T05:49:53;3.72;;;3.42;;
70951;SDS011;69214;55.880;37.542;2023-05-29T05:52:20;4.13;;;3.73;;
70951;SDS011;69214;55.880;37.542;2023-05-29T05:54:46;3.90;;;3.50;;
70951;SDS011;69214;55.880;37.542;2023-05-29T05:57:13;3.92;;;3.53;;
70951;SDS011;69214;55.880;37.542;2023-05-29T05:59:39;4.30;;;3.90;;
70951;SDS011;69214;55.880;37.542;2023-05-29T06:02:05;4.60;;;4.20;;
70951;SDS011;69214;55.880;37.542;2023-05-29T06:04:31;4.47;;;4.07;;
70951;SDS011;69214;55.880;37.542;2023-05-29T06:06:57;5.55;;;5.13;;
70951;SDS011;69214;55.880;37.542;2023-05-29T06:09:23;5.32;;;4.90;;
70951;SDS011;69214;55.880;37.542;2023-05-29T06:11:50;5.70;;;5.30;;
70951;SDS011;69214;55.880;37.542;2023-05-29T06:14:16;5.43;;;4.93;;
70951;SDS011;69214;55.880;37.542;2023-05-29T06:16:43;6.40;;;5.90;;
70951;SDS011;69214;55.880;37.542;2023-05-29T06:19:09;5.93;;;5.43;;
70951;SDS011;69214;55.880;37.542;2023-05-29T06:21:51;6.80;;;6.30;;
70951;SDS011;69214;55.880;37.542;2023-05-29T06:24:17;6.65;;;6.15;;
70951;SDS011;69214;55.880;37.542;2023-05-29T06:26:42;6.80;;;6.30;;
70951;SDS011;69214;55.880;37.542;2023-05-29T06:29:10;6.60;;;6.10;;
70951;SDS011;69214;55.880;37.542;2023-05-29T06:31:36;6.45;;;5.95;;
70951;SDS011;69214;55.880;37.542;2023-05-29T06:34:28;6.77;;;6.27;;
70951;SDS011;69214;55.880;37.542;2023-05-29T06:36:54;6.97;;;6.47;;
70951;SDS011;69214;55.880;37.542;2023-05-29T06:39:21;6.97;;;6.38;;
70951;SDS011;69214;55.880;37.542;2023-05-29T06:41:47;8.52;;;7.88;;
70951;SDS011;69214;55.880;37.542;2023-05-29T06:44:17;8.70;;;8.03;;
70951;SDS011;69214;55.880;37.542;2023-05-29T06:46:42;5.55;;;5.10;;
70951;SDS011;69214;55.880;37.542;2023-05-29T06:49:09;7.10;;;6.28;;
70951;SDS011;69214;55.880;37.542;2023-05-29T06:51:51;6.20;;;5.70;;
70951;SDS011;69214;55.880;37.542;2023-05-29T06:54:46;6.20;;;5.77;;
70951;SDS011;69214;55.880;37.542;2023-05-29T06:57:11;6.60;;;6.10;;
70951;SDS011;69214;55.880;37.542;2023-05-29T06:59:38;6.50;;;6.00;;
70951;SDS011;69214;55.880;37.542;2023-05-29T07:02:04;6.80;;;6.28;;
70951;SDS011;69214;55.880;37.542;2023-05-29T07:04:31;7.27;;;6.77;;
70951;SDS011;69214;55.880;37.542;2023-05-29T07:06:57;5.57;;;5.18;;
70951;SDS011;69214;55.880;37.542;2023-05-29T07:09:23;7.65;;;7.15;;
70951;SDS011;69214;55.880;37.542;2023-05-29T07:11:51;7.35;;;6.85;;
70951;SDS011;69214;55.880;37.542;2023-05-29T07:14:17;7.93;;;7.43;;
70951;SDS011;69214;55.880;37.542;2023-05-29T07:16:43;7.43;;;6.93;;
70951;SDS011;69214;55.880;37.542;2023-05-29T07:19:11;6.72;;;6.13;;
70951;SDS011;69214;55.880;37.542;2023-05-29T07:21:39;7.82;;;7.30;;
70951;SDS011;69214;55.880;37.542;2023-05-29T07:24:06;7.97;;;7.37;;
70951;SDS011;69214;55.880;37.542;2023-05-29T07:26:31;7.05;;;6.55;;
70951;SDS011;69214;55.880;37.542;2023-05-29T07:28:57;7.53;;;6.85;;
70951;SDS011;69214;55.880;37.542;2023-05-29T07:31:23;7.70;;;7.20;;
70951;SDS011;69214;55.880;37.542;2023-05-29T07:33:50;7.07;;;6.57;;
70951;SDS011;69214;55.880;37.542;2023-05-29T07:36:17;6.23;;;5.63;;
70951;SDS011;69214;55.880;37.542;2023-05-29T07:38:44;7.65;;;7.15;;
70951;SDS011;69214;55.880;37.542;2023-05-29T07:41:14;7.10;;;6.60;;
70951;SDS011;69214;55.880;37.542;2023-05-29T07:43:47;7.35;;;6.85;;
70951;SDS011;69214;55.880;37.542;2023-05-29T07:46:18;7.03;;;6.53;;
70951;SDS011;69214;55.880;37.542;2023-05-29T07:48:44;5.47;;;5.07;;
70951;SDS011;69214;55.880;37.542;2023-05-29T07:51:11;6.80;;;6.30;;
70951;SDS011;69214;55.880;37.542;2023-05-29T07:53:44;5.30;;;4.90;;
70951;SDS011;69214;55.880;37.542;2023-05-29T07:56:11;5.82;;;5.32;;
70951;SDS011;69214;55.880;37.542;2023-05-29T07:58:38;4.88;;;4.47;;
70951;SDS011;69214;55.880;37.542;2023-05-29T08:01:06;4.63;;;4.23;;
70951;SDS011;69214;55.880;37.542;2023-05-29T08:03:33;4.85;;;4.45;;
70951;SDS011;69214;55.880;37.542;2023-05-29T08:06:19;4.80;;;3.45;;
70951;SDS011;69214;55.880;37.542;2023-05-29T08:08:45;3.28;;;2.97;;
70951;SDS011;69214;55.880;37.542;2023-05-29T08:11:10;3.90;;;3.50;;
70951;SDS011;69214;55.880;37.542;2023-05-29T08:13:37;5.13;;;3.60;;
70951;SDS011;69214;55.880;37.542;2023-05-29T08:16:03;4.15;;;2.63;;
70951;SDS011;69214;55.880;37.542;2023-05-29T08:18:30;3.25;;;2.10;;
70951;SDS011;69214;55.880;37.542;2023-05-29T08:20:58;3.17;;;1.60;;
70951;SDS011;69214;55.880;37.542;2023-05-29T08:23:24;3.28;;;0.90;;
70951;SDS011;69214;55.880;37.542;2023-05-29T08:25:50;2.53;;;0.95;;
70951;SDS011;69214;55.880;37.542;2023-05-29T08:28:16;3.08;;;0.88;;
70951;SDS011;69214;55.880;37.542;2023-05-29T08:30:42;4.60;;;0.73;;
70951;SDS011;69214;55.880;37.542;2023-05-29T08:33:08;3.60;;;0.60;;
70951;SDS011;69214;55.880;37.542;2023-05-29T08:35:34;2.75;;;0.65;;
70951;SDS011;69214;55.880;37.542;2023-05-29T08:38:00;2.05;;;0.45;;
70951;SDS011;69214;55.880;37.542;2023-05-29T08:40:27;1.80;;;0.40;;
70951;SDS011;69214;55.880;37.542;2023-05-29T08:45:33;2.65;;;0.40;;
70951;SDS011;69214;55.880;37.542;2023-05-29T08:48:09;1.40;;;0.40;;
70951;SDS011;69214;55.880;37.542;2023-05-29T08:50:41;2.88;;;0.30;;
70951;SDS011;69214;55.880;37.542;2023-05-29T08:53:12;2.25;;;0.35;;
70951;SDS011;69214;55.880;37.542;2023-05-29T08:55:39;1.27;;;0.20;;
70951;SDS011;69214;55.880;37.542;2023-05-29T08:58:05;1.25;;;0.30;;
70951;SDS011;69214;55.880;37.542;2023-05-29T09:00:32;2.53;;;0.30;;
70951;SDS011;69214;55.880;37.542;2023-05-29T09:02:58;1.23;;;0.30;;
70951;SDS011;69214;55.880;37.542;2023-05-29T09:05:28;1.45;;;0.40;;
70951;SDS011;69214;55.880;37.542;2023-05-29T09:07:55;1.43;;;0.30;;
70951;SDS011;69214;55.880;37.542;2023-05-29T09:10:22;2.45;;;0.30;;
70951;SDS011;69214;55.880;37.542;2023-05-29T09:12:48;2.70;;;0.40;;
70951;SDS011;69214;55.880;37.542;2023-05-29T09:15:18;0.50;;;0.10;;
70951;SDS011;69214;55.880;37.542;2023-05-29T09:20:24;1.47;;;0.30;;
70951;SDS011;69214;55.880;37.542;2023-05-29T09:22:55;2.05;;;0.20;;
70951;SDS011;69214;55.880;37.542;2023-05-29T09:25:27;2.50;;;0.20;;
70951;SDS011;69214;55.880;37.542;2023-05-29T09:27:57;2.10;;;0.30;;
70951;SDS011;69214;55.880;37.542;2023-05-29T09:30:36;2.65;;;0.32;;
70951;SDS011;69214;55.880;37.542;2023-05-29T09:33:04;3.17;;;0.20;;
70951;SDS011;69214;55.880;37.542;2023-05-29T09:35:41;1.05;;;0.20;;
70951;SDS011;69214;55.880;37.542;2023-05-29T09:38:14;1.25;;;0.20;;
70951;SDS011;69214;55.880;37.542;2023-05-29T09:40:41;1.15;;;0.20;;
70951;SDS011;69214;55.880;37.542;2023-05-29T09:45:37;1.13;;;0.30;;
70951;SDS011;69214;55.880;37.542;2023-05-29T09:48:07;2.58;;;0.30;;
70951;SDS011;69214;55.880;37.542;2023-05-29T09:50:37;0.75;;;0.20;;
70951;SDS011;69214;55.880;37.542;2023-05-29T09:53:03;0.77;;;0.13;;
70951;SDS011;69214;55.880;37.542;2023-05-29T09:55:41;2.57;;;0.33;;
70951;SDS011;69214;55.880;37.542;2023-05-29T09:58:07;1.63;;;0.20;;
70951;SDS011;69214;55.880;37.542;2023-05-29T10:00:33;1.23;;;0.20;;
70951;SDS011;69214;55.880;37.542;2023-05-29T10:03:00;0.88;;;0.15;;
70951;SDS011;69214;55.880;37.542;2023-05-29T10:05:26;1.63;;;0.20;;
70951;SDS011;69214;55.880;37.542;2023-05-29T10:07:52;1.17;;;0.30;;
70951;SDS011;69214;55.880;37.542;2023-05-29T10:10:19;2.55;;;0.30;;
70951;SDS011;69214;55.880;37.542;2023-05-29T10:12:48;1.17;;;0.30;;
70951;SDS011;69214;55.880;37.542;2023-05-29T10:15:16;1.38;;;0.15;;
70951;SDS011;69214;55.880;37.542;2023-05-29T10:17:59;0.90;;;0.20;;
70951;SDS011;69214;55.880;37.542;2023-05-29T10:20:29;2.37;;;0.20;;
70951;SDS011;69214;55.880;37.542;2023-05-29T10:22:59;1.70;;;0.20;;
70951;SDS011;69214;55.880;37.542;2023-05-29T10:25:27;2.38;;;0.30;;
70951;SDS011;69214;55.880;37.542;2023-05-29T10:27:56;0.43;;;0.10;;
70951;SDS011;69214;55.880;37.542;2023-05-29T10:30:41;1.30;;;0.20;;
70951;SDS011;69214;55.880;37.542;2023-05-29T10:33:21;2.13;;;0.20;;
70951;SDS011;69214;55.880;37.542;2023-05-29T10:36:32;1.60;;;0.20;;
70951;SDS011;69214;55.880;37.542;2023-05-29T10:38:44;1.85;;;0.20;;
70951;SDS011;69214;55.880;37.542;2023-05-29T10:43:56;1.38;;;0.30;;
70951;SDS011;69214;55.880;37.542;2023-05-29T10:49:26;1.13;;;0.20;;
70951;SDS011;69214;55.880;37.542;2023-05-29T10:51:52;1.35;;;0.20;;
70951;SDS011;69214;55.880;37.542;2023-05-29T10:54:22;1.13;;;0.20;;
70951;SDS011;69214;55.880;37.542;2023-05-29T10:56:56;1.10;;;0.20;;
70951;SDS011;69214;55.880;37.542;2023-05-29T10:59:24;2.33;;;0.30;;
70951;SDS011;69214;55.880;37.542;2023-05-29T11:01:54;0.55;;;0.10;;
70951;SDS011;69214;55.880;37.542;2023-05-29T11:06:52;1.95;;;0.30;;
70951;SDS011;69214;55.880;37.542;2023-05-29T11:12:20;1.57;;;0.20;;
70951;SDS011;69214;55.880;37.542;2023-05-29T11:15:05;1.27;;;0.20;;
70951;SDS011;69214;55.880;37.542;2023-05-29T11:20:04;0.80;;;0.20;;
70951;SDS011;69214;55.880;37.542;2023-05-29T11:25:43;0.68;;;0.20;;
70951;SDS011;69214;55.880;37.542;2023-05-29T11:28:11;3.23;;;0.20;;
70951;SDS011;69214;55.880;37.542;2023-05-29T11:30:44;1.80;;;0.20;;
70951;SDS011;69214;55.880;37.542;2023-05-29T11:33:32;0.95;;;0.20;;
70951;SDS011;69214;55.880;37.542;2023-05-29T11:36:01;1.40;;;0.20;;
70951;SDS011;69214;55.880;37.542;2023-05-29T11:38:28;1.05;;;0.20;;
70951;SDS011;69214;55.880;37.542;2023-05-29T11:40:54;0.87;;;0.20;;
70951;SDS011;69214;55.880;37.542;2023-05-29T11:43:21;2.88;;;0.20;;
70951;SDS011;69214;55.880;37.542;2023-05-29T11:45:48;0.80;;;0.20;;
70951;SDS011;69214;55.880;37.542;2023-05-29T11:48:14;1.15;;;0.35;;
70951;SDS011;69214;55.880;37.542;2023-05-29T11:50:40;1.20;;;0.20;;
70951;SDS011;69214;55.880;37.542;2023-05-29T11:53:06;1.30;;;0.30;;
70951;SDS011;69214;55.880;37.542;2023-05-29T11:55:33;0.50;;;0.10;;
70951;SDS011;69214;55.880;37.542;2023-05-29T11:58:00;1.42;;;0.22;;
70951;SDS011;69214;55.880;37.542;2023-05-29T12:00:33;0.70;;;0.10;;
70951;SDS011;69214;55.880;37.542;2023-05-29T12:03:00;0.70;;;0.10;;
70951;SDS011;69214;55.880;37.542;2023-05-29T12:05:30;1.02;;;0.30;;
70951;SDS011;69214;55.880;37.542;2023-05-29T12:08:09;1.25;;;0.30;;
70951;SDS011;69214;55.880;37.542;2023-05-29T12:10:35;2.17;;;0.25;;
70951;SDS011;69214;55.880;37.542;2023-05-29T12:13:01;1.08;;;0.20;;
70951;SDS011;69214;55.880;37.542;2023-05-29T12:15:27;1.37;;;0.20;;
70951;SDS011;69214;55.880;37.542;2023-05-29T12:17:53;1.23;;;0.20;;
70951;SDS011;69214;55.880;37.542;2023-05-29T12:20:24;1.25;;;0.17;;
70951;SDS011;69214;55.880;37.542;2023-05-29T12:22:53;1.15;;;0.30;;
70951;SDS011;69214;55.880;37.542;2023-05-29T12:25:26;0.90;;;0.20;;
70951;SDS011;69214;55.880;37.542;2023-05-29T12:27:53;2.45;;;0.30;;
70951;SDS011;69214;55.880;37.542;2023-05-29T12:30:22;1.10;;;0.30;;
70951;SDS011;69214;55.880;37.542;2023-05-29T12:32:48;1.10;;;0.20;;
70951;SDS011;69214;55.880;37.542;2023-05-29T12:35:19;4.38;;;0.30;;
70951;SDS011;69214;55.880;37.542;2023-05-29T12:37:54;0.53;;;0.20;;
70951;SDS011;69214;55.880;37.542;2023-05-29T12:40:25;0.98;;;0.20;;
70951;SDS011;69214;55.880;37.542;2023-05-29T12:43:03;1.05;;;0.17;;
70951;SDS011;69214;55.880;37.542;2023-05-29T12:45:32;3.45;;;0.30;;
70951;SDS011;69214;55.880;37.542;2023-05-29T12:48:00;0.90;;;0.20;;
70951;SDS011;69214;55.880;37.542;2023-05-29T12:50:29;0.83;;;0.17;;
70951;SDS011;69214;55.880;37.542;2023-05-29T12:53:03;1.30;;;0.30;;
70951;SDS011;69214;55.880;37.542;2023-05-29T12:55:31;1.55;;;0.20;;
70951;SDS011;69214;55.880;37.542;2023-05-29T12:58:03;2.15;;;0.20;;
70951;SDS011;69214;55.880;37.542;2023-05-29T13:00:29;0.88;;;0.20;;
70951;SDS011;69214;55.880;37.542;2023-05-29T13:02:56;1.30;;;0.20;;
70951;SDS011;69214;55.880;37.542;2023-05-29T13:05:22;1.87;;;0.20;;
70951;SDS011;69214;55.880;37.542;2023-05-29T13:07:49;1.70;;;0.20;;
70951;SDS011;69214;55.880;37.542;2023-05-29T13:10:16;1.38;;;0.20;;
70951;SDS011;69214;55.880;37.542;2023-05-29T13:12:43;0.93;;;0.20;;
70951;SDS011;69214;55.880;37.542;2023-05-29T13:15:11;0.60;;;0.20;;
70951;SDS011;69214;55.880;37.542;2023-05-29T13:17:38;1.83;;;0.20;;
70951;SDS011;69214;55.880;37.542;2023-05-29T13:20:09;0.80;;;0.20;;
70951;SDS011;69214;55.880;37.542;2023-05-29T13:22:36;0.65;;;0.13;;
70951;SDS011;69214;55.880;37.542;2023-05-29T13:25:06;3.90;;;0.40;;
70951;SDS011;69214;55.880;37.542;2023-05-29T13:27:33;0.60;;;0.10;;
70951;SDS011;69214;55.880;37.542;2023-05-29T13:30:00;2.40;;;0.25;;
70951;SDS011;69214;55.880;37.542;2023-05-29T13:32:30;2.15;;;0.20;;
70951;SDS011;69214;55.880;37.542;2023-05-29T13:34:56;1.45;;;0.28;;
70951;SDS011;69214;55.880;37.542;2023-05-29T13:37:22;3.95;;;0.20;;
70951;SDS011;69214;55.880;37.542;2023-05-29T13:39:48;1.60;;;0.30;;
70951;SDS011;69214;55.880;37.542;2023-05-29T13:42:14;2.08;;;0.40;;
70951;SDS011;69214;55.880;37.542;2023-05-29T13:44:40;1.85;;;0.40;;
70951;SDS011;69214;55.880;37.542;2023-05-29T13:47:06;1.00;;;0.20;;
70951;SDS011;69214;55.880;37.542;2023-05-29T13:49:33;0.90;;;0.20;;
70951;SDS011;69214;55.880;37.542;2023-05-29T13:52:00;2.17;;;0.20;;
70951;SDS011;69214;55.880;37.542;2023-05-29T13:54:27;0.70;;;0.20;;
70951;SDS011;69214;55.880;37.542;2023-05-29T13:56:55;1.20;;;0.25;;
70951;SDS011;69214;55.880;37.542;2023-05-29T13:59:23;0.55;;;0.20;;
70951;SDS011;69214;55.880;37.542;2023-05-29T14:01:50;1.38;;;0.30;;
70951;SDS011;69214;55.880;37.542;2023-05-29T14:04:16;0.80;;;0.20;;
70951;SDS011;69214;55.880;37.542;2023-05-29T14:06:42;1.08;;;0.30;;
70951;SDS011;69214;55.880;37.542;2023-05-29T14:09:08;0.70;;;0.20;;
70951;SDS011;69214;55.880;37.542;2023-05-29T14:11:37;0.63;;;0.15;;
70951;SDS011;69214;55.880;37.542;2023-05-29T14:14:03;1.50;;;0.20;;
70951;SDS011;69214;55.880;37.542;2023-05-29T14:16:29;1.70;;;0.30;;
70951;SDS011;69214;55.880;37.542;2023-05-29T14:18:55;2.95;;;0.30;;
70951;SDS011;69214;55.880;37.542;2023-05-29T14:21:24;2.60;;;0.10;;
70951;SDS011;69214;55.880;37.542;2023-05-29T14:23:50;1.45;;;0.10;;
70951;SDS011;69214;55.880;37.542;2023-05-29T14:26:16;0.67;;;0.10;;
70951;SDS011;69214;55.880;37.542;2023-05-29T14:28:42;2.42;;;0.28;;
70951;SDS011;69214;55.880;37.542;2023-05-29T14:31:08;4.63;;;0.20;;
70951;SDS011;69214;55.880;37.542;2023-05-29T14:33:34;1.63;;;0.30;;
70951;SDS011;69214;55.880;37.542;2023-05-29T14:36:02;1.15;;;0.20;;
70951;SDS011;69214;55.880;37.542;2023-05-29T14:38:30;1.80;;;0.30;;
70951;SDS011;69214;55.880;37.542;2023-05-29T14:40:57;1.00;;;0.20;;
70951;SDS011;69214;55.880;37.542;2023-05-29T14:43:23;2.15;;;0.20;;
70951;SDS011;69214;55.880;37.542;2023-05-29T14:45:49;0.90;;;0.20;;
70951;SDS011;69214;55.880;37.542;2023-05-29T14:48:15;1.27;;;0.20;;
70951;SDS011;69214;55.880;37.542;2023-05-29T14:50:41;0.88;;;0.20;;
70951;SDS011;69214;55.880;37.542;2023-05-29T14:53:07;1.02;;;0.20;;
70951;SDS011;69214;55.880;37.542;2023-05-29T14:55:33;1.13;;;0.20;;
70951;SDS011;69214;55.880;37.542;2023-05-29T14:58:03;1.40;;;0.30;;
70951;SDS011;69214;55.880;37.542;2023-05-29T15:00:29;0.80;;;0.20;;
70951;SDS011;69214;55.880;37.542;2023-05-29T15:02:55;1.73;;;0.28;;
70951;SDS011;69214;55.880;37.542;2023-05-29T15:05:27;0.80;;;0.20;;
70951;SDS011;69214;55.880;37.542;2023-05-29T15:07:55;2.05;;;0.20;;
70951;SDS011;69214;55.880;37.542;2023-05-29T15:10:23;2.33;;;0.20;;
70951;SDS011;69214;55.880;37.542;2023-05-29T15:12:52;3.15;;;0.28;;
70951;SDS011;69214;55.880;37.542;2023-05-29T15:15:25;1.38;;;0.50;;
70951;SDS011;69214;55.880;37.542;2023-05-29T15:17:52;1.17;;;0.23;;
70951;SDS011;69214;55.880;37.542;2023-05-29T15:20:23;1.55;;;0.20;;
70951;SDS011;69214;55.880;37.542;2023-05-29T15:22:50;2.03;;;0.20;;
70951;SDS011;69214;55.880;37.542;2023-05-29T15:25:17;2.33;;;0.30;;
70951;SDS011;69214;55.880;37.542;2023-05-29T15:27:44;0.80;;;0.20;;
70951;SDS011;69214;55.880;37.542;2023-05-29T15:30:11;2.07;;;0.30;;
70951;SDS011;69214;55.880;37.542;2023-05-29T15:32:42;0.70;;;0.10;;